createdAt,value
2019-03-25T00:01:31.552Z,954.15
2019-03-25T00:03:57.863Z,954.16
2019-03-25T00:06:24.202Z,954.11
2019-03-25T00:09:03.273Z,954.14
2019-03-25T00:11:16.836Z,954.13
2019-03-25T00:13:43.133Z,954.08
2019-03-25T00:16:09.449Z,953.98
2019-03-25T00:18:35.761Z,953.98
2019-03-25T00:21:02.066Z,953.95
2019-03-25T00:23:28.369Z,953.97
2019-03-25T00:25:54.687Z,953.93
2019-03-25T00:28:21.007Z,953.92
2019-03-25T00:30:47.320Z,953.88
2019-03-25T00:33:13.628Z,953.94
2019-03-25T00:35:39.971Z,953.86
2019-03-25T00:38:06.274Z,953.84
2019-03-25T00:40:32.581Z,953.88
2019-03-25T00:42:58.888Z,953.82
2019-03-25T00:45:25.192Z,953.78
2019-03-25T00:47:51.499Z,953.74
2019-03-25T00:50:17.804Z,953.72
2019-03-25T00:52:44.107Z,953.65
2019-03-25T00:55:10.412Z,953.66
2019-03-25T00:57:36.720Z,953.69
2019-03-25T01:00:03.025Z,953.66
2019-03-25T01:02:29.371Z,953.71
2019-03-25T01:04:55.676Z,953.69
2019-03-25T01:07:21.981Z,953.69
2019-03-25T01:09:48.287Z,953.71
2019-03-25T01:12:14.596Z,953.78
2019-03-25T01:14:40.902Z,953.75
2019-03-25T01:17:07.209Z,953.70
2019-03-25T01:19:33.525Z,953.71
2019-03-25T01:21:59.835Z,953.63
2019-03-25T01:24:26.194Z,953.68
2019-03-25T01:26:52.499Z,953.64
2019-03-25T01:29:18.804Z,953.62
2019-03-25T01:31:45.132Z,953.65
2019-03-25T01:34:11.439Z,953.60
2019-03-25T01:36:37.743Z,953.62
2019-03-25T01:39:04.052Z,953.57
2019-03-25T01:41:30.364Z,953.61
2019-03-25T01:43:56.670Z,953.59
2019-03-25T01:46:22.975Z,953.56
2019-03-25T01:48:49.283Z,953.65
2019-03-25T01:51:15.592Z,953.60
2019-03-25T01:53:41.900Z,953.55
2019-03-25T01:56:08.210Z,953.58
2019-03-25T01:58:34.539Z,953.52
2019-03-25T02:01:00.845Z,953.50
2019-03-25T02:03:27.156Z,953.45
2019-03-25T02:05:53.465Z,953.45
2019-03-25T02:08:19.763Z,953.41
2019-03-25T02:10:46.066Z,953.36
2019-03-25T02:13:12.372Z,953.29
2019-03-25T02:15:38.681Z,953.28
2019-03-25T02:18:04.988Z,953.32
2019-03-25T02:20:31.328Z,953.28
2019-03-25T02:22:57.807Z,953.18
2019-03-25T02:25:25.662Z,953.14
2019-03-25T02:27:50.248Z,953.12
2019-03-25T02:30:16.545Z,953.16
2019-03-25T02:32:42.846Z,953.11
2019-03-25T02:35:09.168Z,953.15
2019-03-25T02:37:35.474Z,953.08
2019-03-25T02:40:01.773Z,953.05
2019-03-25T02:42:28.103Z,953.06
2019-03-25T02:44:54.404Z,953.04
2019-03-25T02:47:20.718Z,952.96
2019-03-25T02:49:47.022Z,952.95
2019-03-25T02:52:13.320Z,952.89
2019-03-25T02:54:39.624Z,952.86
2019-03-25T02:57:05.933Z,952.91
2019-03-25T02:59:32.244Z,952.94
2019-03-25T03:01:58.551Z,952.95
2019-03-25T03:04:24.875Z,952.96
2019-03-25T03:06:51.177Z,952.86
2019-03-25T03:09:17.490Z,952.81
2019-03-25T03:11:43.786Z,952.81
2019-03-25T03:14:10.098Z,952.85
2019-03-25T03:16:36.417Z,952.90
2019-03-25T03:19:02.716Z,952.87
2019-03-25T03:21:29.014Z,952.85
2019-03-25T03:23:55.317Z,952.91
2019-03-25T03:26:21.631Z,952.85
2019-03-25T03:28:47.932Z,952.80
2019-03-25T03:31:14.242Z,952.80
2019-03-25T03:33:40.549Z,952.81
2019-03-25T03:36:06.846Z,952.84
2019-03-25T03:38:33.153Z,952.78
2019-03-25T03:40:59.458Z,952.81
2019-03-25T03:43:25.810Z,952.79
2019-03-25T03:45:52.135Z,952.72
2019-03-25T03:48:18.412Z,952.77
2019-03-25T03:50:44.748Z,952.76
2019-03-25T03:53:11.052Z,952.74
2019-03-25T03:55:37.360Z,952.71
2019-03-25T03:58:03.661Z,952.75
2019-03-25T04:00:29.967Z,952.78
2019-03-25T04:02:56.275Z,952.70
2019-03-25T04:05:22.589Z,952.72
2019-03-25T04:07:48.900Z,952.72
2019-03-25T04:10:15.242Z,952.65
2019-03-25T04:12:41.532Z,952.68
2019-03-25T04:15:07.863Z,952.60
2019-03-25T04:17:34.169Z,952.69
2019-03-25T04:20:00.530Z,952.61
2019-03-25T04:22:26.787Z,952.64
2019-03-25T04:24:53.075Z,952.63
2019-03-25T04:27:19.378Z,952.59
2019-03-25T04:29:45.677Z,952.59
2019-03-25T04:32:12.016Z,952.66
2019-03-25T04:34:38.323Z,952.65
2019-03-25T04:37:04.635Z,952.65
2019-03-25T04:39:30.942Z,952.61
2019-03-25T04:41:57.247Z,952.59
2019-03-25T04:44:23.555Z,952.58
2019-03-25T04:46:49.858Z,952.52
2019-03-25T04:49:16.183Z,952.60
2019-03-25T04:51:44.737Z,952.59
2019-03-25T04:54:08.781Z,952.64
2019-03-25T04:56:39.783Z,952.66
2019-03-25T04:59:01.395Z,952.52
2019-03-25T05:01:27.723Z,952.54
2019-03-25T05:03:54.028Z,952.52
2019-03-25T05:06:20.331Z,952.53
2019-03-25T05:08:46.640Z,952.48
2019-03-25T05:11:12.937Z,952.57
2019-03-25T05:13:39.245Z,952.47
2019-03-25T05:16:05.546Z,952.48
2019-03-25T05:18:31.863Z,952.47
2019-03-25T05:20:58.158Z,952.41
2019-03-25T05:23:24.497Z,952.41
2019-03-25T05:25:50.805Z,952.47
2019-03-25T05:28:17.121Z,952.40
2019-03-25T05:30:43.428Z,952.45
2019-03-25T05:33:09.730Z,952.35
2019-03-25T05:35:36.043Z,952.40
2019-03-25T05:38:02.356Z,952.38
2019-03-25T05:40:28.661Z,952.44
2019-03-25T05:42:54.969Z,952.34
2019-03-25T05:45:21.331Z,952.30
2019-03-25T05:47:47.640Z,952.21
2019-03-25T05:50:13.945Z,952.22
2019-03-25T05:52:40.251Z,952.21
2019-03-25T05:55:06.563Z,952.27
2019-03-25T05:57:32.879Z,952.23
2019-03-25T05:59:59.186Z,952.29
2019-03-25T06:02:25.500Z,952.21
2019-03-25T06:04:51.805Z,952.13
2019-03-25T06:07:18.140Z,952.12
2019-03-25T06:09:44.440Z,952.14
2019-03-25T06:12:10.745Z,952.16
2019-03-25T06:14:37.047Z,952.13
2019-03-25T06:17:03.352Z,952.08
2019-03-25T06:19:29.663Z,952.03
2019-03-25T06:21:55.962Z,952.09
2019-03-25T06:24:22.292Z,952.10
2019-03-25T06:26:48.606Z,951.98
2019-03-25T06:29:14.916Z,952.02
2019-03-25T06:31:41.225Z,952.02
2019-03-25T06:34:07.680Z,951.91
2019-03-25T06:36:33.991Z,951.94
2019-03-25T06:39:00.308Z,951.92
2019-03-25T06:41:26.627Z,951.92
2019-03-25T06:43:52.926Z,951.83
2019-03-25T06:46:19.233Z,951.83
2019-03-25T06:48:45.546Z,951.76
2019-03-25T06:51:11.852Z,951.79
2019-03-25T06:53:38.167Z,951.85
2019-03-25T06:56:04.582Z,951.78
2019-03-25T06:58:30.925Z,951.87
2019-03-25T07:00:57.237Z,951.84
2019-03-25T07:03:23.543Z,951.85
2019-03-25T07:05:49.882Z,951.84
2019-03-25T07:08:16.188Z,951.84
2019-03-25T07:10:42.501Z,951.88
2019-03-25T07:13:08.808Z,951.83
2019-03-25T07:15:35.118Z,951.85
2019-03-25T07:18:01.428Z,951.87
2019-03-25T07:20:27.782Z,951.79
2019-03-25T07:22:54.061Z,951.79
2019-03-25T07:25:20.417Z,951.79
2019-03-25T07:27:46.721Z,951.72
2019-03-25T07:30:13.062Z,951.77
2019-03-25T07:32:39.335Z,951.68
2019-03-25T07:35:05.715Z,951.71
2019-03-25T07:37:32.029Z,951.62
2019-03-25T07:39:58.333Z,951.66
2019-03-25T07:42:24.645Z,951.62
2019-03-25T07:44:50.953Z,951.59
2019-03-25T07:47:17.265Z,951.51
2019-03-25T07:49:43.572Z,951.45
2019-03-25T07:52:09.896Z,951.37
2019-03-25T07:54:36.216Z,951.41
2019-03-25T07:57:02.586Z,951.40
2019-03-25T07:59:28.878Z,951.34
2019-03-25T08:01:55.178Z,951.40
2019-03-25T08:04:21.487Z,951.30
2019-03-25T08:06:47.805Z,951.33
2019-03-25T08:09:14.109Z,951.24
2019-03-25T08:11:40.406Z,951.20
2019-03-25T08:14:06.751Z,951.16
2019-03-25T08:16:33.056Z,951.11
2019-03-25T08:18:59.392Z,951.05
2019-03-25T08:21:25.714Z,950.97
2019-03-25T08:23:52.022Z,950.96
2019-03-25T08:26:18.348Z,950.88
2019-03-25T08:28:44.764Z,950.90
2019-03-25T08:31:11.197Z,950.89
2019-03-25T08:33:37.505Z,950.81
2019-03-25T08:36:03.807Z,950.84
2019-03-25T08:38:30.123Z,950.75
2019-03-25T08:40:56.428Z,950.69
2019-03-25T08:43:22.794Z,950.72
2019-03-25T08:45:49.045Z,950.60
2019-03-25T08:48:15.357Z,950.57
2019-03-25T08:50:41.664Z,950.55
2019-03-25T08:53:07.987Z,950.49
2019-03-25T08:55:34.290Z,950.42
2019-03-25T08:58:11.494Z,950.40
2019-03-25T09:00:27.034Z,950.43
2019-03-25T09:02:53.281Z,950.38
2019-03-25T09:05:19.623Z,950.34
2019-03-25T09:07:45.929Z,950.26
2019-03-25T09:10:12.232Z,950.17
2019-03-25T09:12:38.543Z,950.16
2019-03-25T09:15:04.857Z,950.11
2019-03-25T09:17:31.360Z,950.08
2019-03-25T09:19:57.833Z,950.02
2019-03-25T09:22:24.140Z,950.01
2019-03-25T09:24:50.447Z,949.93
2019-03-25T09:27:16.751Z,949.92
2019-03-25T09:29:43.190Z,949.84
2019-03-25T09:32:09.530Z,949.81
2019-03-25T09:34:35.832Z,949.76
2019-03-25T09:37:02.144Z,949.72
2019-03-25T09:39:28.493Z,949.66
2019-03-25T09:41:54.792Z,949.56
2019-03-25T09:44:21.102Z,949.46
2019-03-25T09:52:07.038Z,949.37
2019-03-25T09:54:33.360Z,949.24
2019-03-25T09:56:59.662Z,949.26
2019-03-25T09:59:26.124Z,949.17
2019-03-25T10:01:52.429Z,949.13
2019-03-25T10:04:20.105Z,949.08
2019-03-25T10:06:45.081Z,949.00
2019-03-25T10:09:11.429Z,948.92
2019-03-25T10:11:37.738Z,948.96
2019-03-25T10:14:04.047Z,948.82
2019-03-25T10:16:30.356Z,948.86
2019-03-25T10:18:56.667Z,948.80
2019-03-25T10:21:22.981Z,948.69
2019-03-25T10:23:49.309Z,948.63
2019-03-25T10:26:15.638Z,948.57
2019-03-25T10:28:48.550Z,948.60
2019-03-25T10:31:08.258Z,948.53
2019-03-25T10:33:34.577Z,948.48
2019-03-25T10:36:00.888Z,948.46
2019-03-25T10:38:27.223Z,948.42
2019-03-25T10:40:53.533Z,948.33
2019-03-25T10:43:20.336Z,948.29
2019-03-25T10:45:46.665Z,948.27
2019-03-25T10:48:13.006Z,948.23
2019-03-25T10:50:39.310Z,948.17
2019-03-25T10:53:05.627Z,948.20
2019-03-25T10:55:31.942Z,948.14
2019-03-25T10:57:58.248Z,948.07
2019-03-25T11:00:24.566Z,947.98
2019-03-25T11:02:50.868Z,947.98
2019-03-25T11:05:17.179Z,947.88
2019-03-25T11:07:43.530Z,947.82
2019-03-25T11:10:09.794Z,947.74
2019-03-25T11:12:36.115Z,947.67
2019-03-25T11:15:02.421Z,947.64
2019-03-25T11:17:28.733Z,947.61
2019-03-25T11:19:55.037Z,947.55
2019-03-25T11:22:21.349Z,947.51
2019-03-25T11:24:47.669Z,947.38
2019-03-25T11:27:14.021Z,947.28
2019-03-25T11:29:40.330Z,947.26
2019-03-25T11:32:06.631Z,947.16
2019-03-25T11:34:32.959Z,947.18
2019-03-25T11:36:59.260Z,947.07
2019-03-25T11:39:25.611Z,947.01
2019-03-25T11:41:51.916Z,946.98
2019-03-25T11:44:18.252Z,946.88
2019-03-25T11:46:44.557Z,946.83
2019-03-25T11:49:10.894Z,946.74
2019-03-25T11:51:37.211Z,946.70
2019-03-25T11:54:03.524Z,946.61
2019-03-25T11:56:29.834Z,946.54
2019-03-25T11:58:56.139Z,946.55
2019-03-25T12:01:22.454Z,946.45
2019-03-25T12:03:48.752Z,946.37
2019-03-25T12:06:15.072Z,946.38
2019-03-25T12:08:41.385Z,946.31
2019-03-25T12:11:07.694Z,946.29
2019-03-25T12:13:34.055Z,946.31
2019-03-25T12:16:00.313Z,946.27
2019-03-25T12:18:26.633Z,946.21
2019-03-25T12:20:52.947Z,946.09
2019-03-25T12:23:26.233Z,946.08
2019-03-25T12:25:45.568Z,946.02
2019-03-25T12:28:11.908Z,945.97
2019-03-25T12:30:38.211Z,946.05
2019-03-25T12:33:04.597Z,945.97
2019-03-25T12:35:30.869Z,945.94
2019-03-25T12:37:57.224Z,945.79
2019-03-25T12:40:23.502Z,945.73
2019-03-25T12:42:49.808Z,945.72
2019-03-25T12:45:16.122Z,945.67
2019-03-25T12:47:42.425Z,945.64
2019-03-25T12:50:08.745Z,945.55
2019-03-25T12:52:35.066Z,945.55
2019-03-25T12:55:01.412Z,945.57
2019-03-25T12:57:27.771Z,945.55
2019-03-25T12:59:54.038Z,945.51
2019-03-25T13:02:20.365Z,945.52
2019-03-25T13:04:46.681Z,945.46
2019-03-25T13:07:12.997Z,945.49
2019-03-25T13:09:39.345Z,945.44
2019-03-25T13:12:05.622Z,945.37
2019-03-25T13:14:31.931Z,945.25
2019-03-25T13:16:58.300Z,945.32
2019-03-25T13:19:24.548Z,945.30
2019-03-25T13:21:50.857Z,945.25
2019-03-25T13:24:19.257Z,945.25
2019-03-25T13:26:43.486Z,945.18
2019-03-25T13:29:09.801Z,945.14
2019-03-25T13:31:36.122Z,945.11
2019-03-25T13:34:02.433Z,945.12
2019-03-25T13:36:28.752Z,944.96
2019-03-25T13:38:55.113Z,945.11
2019-03-25T13:41:21.416Z,945.03
2019-03-25T13:43:47.722Z,945.01
2019-03-25T13:46:14.033Z,945.00
2019-03-25T13:48:40.344Z,944.98
2019-03-25T13:51:06.698Z,944.98
2019-03-25T13:53:32.975Z,944.91
2019-03-25T13:55:59.289Z,944.87
2019-03-25T13:58:25.593Z,944.89
2019-03-25T14:00:51.951Z,944.79
2019-03-25T14:03:18.256Z,944.78
2019-03-25T14:05:44.564Z,944.69
2019-03-25T14:08:10.877Z,944.72
2019-03-25T14:10:37.185Z,944.69
2019-03-25T14:13:03.494Z,944.64
2019-03-25T14:15:29.799Z,944.65
2019-03-25T14:17:56.135Z,944.56
2019-03-25T14:20:22.440Z,944.59
2019-03-25T14:22:48.743Z,944.53
2019-03-25T14:25:15.052Z,944.52
2019-03-25T14:27:41.381Z,944.49
2019-03-25T14:30:14.367Z,944.48
2019-03-25T14:32:33.988Z,944.45
2019-03-25T14:35:00.366Z,944.45
2019-03-25T14:37:26.607Z,944.50
2019-03-25T14:39:52.916Z,944.46
2019-03-25T14:42:19.229Z,944.41
2019-03-25T14:44:45.576Z,944.39
2019-03-25T14:47:11.923Z,944.42
2019-03-25T14:49:38.196Z,944.38
2019-03-25T14:52:04.511Z,944.41
2019-03-25T14:54:30.812Z,944.37
2019-03-25T14:56:57.120Z,944.40
2019-03-25T14:59:23.427Z,944.40
2019-03-25T15:01:49.742Z,944.40
2019-03-25T15:04:16.047Z,944.38
2019-03-25T15:06:42.386Z,944.40
2019-03-25T15:09:08.699Z,944.37
2019-03-25T15:11:34.999Z,944.40
2019-03-25T15:14:01.337Z,944.40
2019-03-25T15:16:27.644Z,944.42
2019-03-25T15:18:53.952Z,944.46
2019-03-25T15:21:20.291Z,944.42
2019-03-25T15:23:46.640Z,944.43
2019-03-25T15:26:12.903Z,944.46
2019-03-25T15:28:39.244Z,944.44
2019-03-25T15:31:05.540Z,944.42
2019-03-25T15:33:31.856Z,944.46
2019-03-25T15:35:58.163Z,944.42
2019-03-25T15:38:25.565Z,944.37
2019-03-25T15:40:50.787Z,944.37
2019-03-25T15:43:17.093Z,944.34
2019-03-25T15:45:43.405Z,944.37
2019-03-25T15:48:09.711Z,944.33
2019-03-25T15:50:36.049Z,944.32
2019-03-25T15:53:02.364Z,944.36
2019-03-25T15:55:28.678Z,944.28
2019-03-25T15:57:55.024Z,944.25
2019-03-25T16:00:21.332Z,944.27
2019-03-25T16:02:47.633Z,944.24
2019-03-25T16:05:13.943Z,944.21
2019-03-25T16:07:40.262Z,944.24
2019-03-25T16:10:06.587Z,944.20
2019-03-25T16:12:32.902Z,944.19
2019-03-25T16:14:59.359Z,944.19
2019-03-25T16:17:25.689Z,944.20
2019-03-25T16:19:52.165Z,944.25
2019-03-25T16:22:18.519Z,944.22
2019-03-25T16:24:44.816Z,944.22
2019-03-25T16:27:11.117Z,944.24
2019-03-25T16:29:37.434Z,944.19
2019-03-25T16:32:03.757Z,944.24
2019-03-25T16:34:30.665Z,944.30
2019-03-25T16:36:56.975Z,944.26
2019-03-25T16:39:23.292Z,944.28
2019-03-25T16:41:49.618Z,944.27
2019-03-25T16:44:15.973Z,944.26
2019-03-25T16:46:42.282Z,944.33
2019-03-25T16:49:08.591Z,944.36
2019-03-25T16:51:34.902Z,944.31
2019-03-25T16:54:01.214Z,944.31
2019-03-25T16:56:27.525Z,944.31
2019-03-25T16:58:53.835Z,944.29
2019-03-25T17:01:20.146Z,944.31
2019-03-25T17:03:46.454Z,944.26
2019-03-25T17:06:12.762Z,944.25
2019-03-25T17:08:39.089Z,944.25
2019-03-25T17:11:05.463Z,944.30
2019-03-25T17:13:31.730Z,944.39
2019-03-25T17:15:58.043Z,944.45
2019-03-25T17:18:24.388Z,944.48
2019-03-25T17:20:50.701Z,944.48
2019-03-25T17:23:17.049Z,944.46
2019-03-25T17:25:52.670Z,944.54
2019-03-25T17:28:09.673Z,944.59
2019-03-25T17:30:35.992Z,944.50
2019-03-25T17:33:02.314Z,944.54
2019-03-25T17:35:28.921Z,944.66
2019-03-25T17:37:55.224Z,944.64
2019-03-25T17:40:21.569Z,944.76
2019-03-25T17:42:47.846Z,944.77
2019-03-25T17:45:14.181Z,944.87
2019-03-25T17:47:44.946Z,944.84
2019-03-25T17:50:11.275Z,944.86
2019-03-25T17:52:37.587Z,944.87
2019-03-25T17:55:03.893Z,944.86
2019-03-25T17:57:30.209Z,944.94
2019-03-25T17:59:56.525Z,944.93
2019-03-25T18:02:22.837Z,944.91
2019-03-25T18:04:49.144Z,944.91
2019-03-25T18:07:15.461Z,944.93
2019-03-25T18:09:41.800Z,944.97
2019-03-25T18:12:08.225Z,944.87
2019-03-25T18:14:34.546Z,944.95
2019-03-25T18:17:00.853Z,944.94
2019-03-25T18:19:27.172Z,944.96
2019-03-25T18:21:53.503Z,944.91
2019-03-25T18:24:19.808Z,944.96
2019-03-25T18:26:46.117Z,944.97
2019-03-25T18:29:12.425Z,944.96
2019-03-25T18:31:43.471Z,944.99
2019-03-25T18:34:05.051Z,944.98
2019-03-25T18:36:31.356Z,944.97
2019-03-25T18:38:57.659Z,944.96
2019-03-25T18:41:24.013Z,944.95
2019-03-25T18:43:50.321Z,945.01
2019-03-25T18:46:16.656Z,945.02
2019-03-25T18:48:42.987Z,945.01
2019-03-25T18:51:09.278Z,944.97
2019-03-25T18:53:35.729Z,945.01
2019-03-25T18:56:02.183Z,944.99
2019-03-25T18:58:28.526Z,944.96
2019-03-25T19:00:54.808Z,945.03
2019-03-25T19:03:21.128Z,945.06
2019-03-25T19:05:47.448Z,945.03
2019-03-25T19:08:13.782Z,945.10
2019-03-25T19:10:40.091Z,945.04
2019-03-25T19:13:06.418Z,945.01
2019-03-25T19:15:32.709Z,945.07
2019-03-25T19:17:59.055Z,945.02
2019-03-25T19:20:25.346Z,945.06
2019-03-25T19:22:51.659Z,945.05
2019-03-25T19:25:17.980Z,945.01
2019-03-25T19:27:44.331Z,945.12
2019-03-25T19:30:10.606Z,945.12
2019-03-25T19:32:37.065Z,945.15
2019-03-25T19:35:03.389Z,945.21
2019-03-25T19:37:29.766Z,945.24
2019-03-25T19:39:56.226Z,945.20
2019-03-25T19:42:22.535Z,945.20
2019-03-25T19:44:48.840Z,945.16
2019-03-25T19:47:15.171Z,945.19
2019-03-25T19:49:41.477Z,945.19
2019-03-25T19:52:09.489Z,945.16
2019-03-25T19:54:34.157Z,945.26
2019-03-25T19:57:00.514Z,945.28
2019-03-25T19:59:26.854Z,945.29
2019-03-25T20:01:53.102Z,945.23
2019-03-25T20:04:19.515Z,945.24
2019-03-25T20:06:45.871Z,945.24
2019-03-25T20:09:12.129Z,945.25
2019-03-25T20:11:38.449Z,945.21
2019-03-25T20:14:04.803Z,945.22
2019-03-25T20:16:31.139Z,945.25
2019-03-25T20:18:58.492Z,945.25
2019-03-25T20:21:24.800Z,945.28
2019-03-25T20:23:51.128Z,945.26
2019-03-25T20:26:17.444Z,945.31
2019-03-25T20:28:43.761Z,945.28
2019-03-25T20:31:10.064Z,945.23
2019-03-25T20:33:36.456Z,945.22
2019-03-25T20:36:02.817Z,945.30
2019-03-25T20:38:29.121Z,945.30
2019-03-25T20:40:55.473Z,945.30
2019-03-25T20:43:21.776Z,945.35
2019-03-25T20:45:48.104Z,945.27
2019-03-25T20:48:14.418Z,945.21
2019-03-25T20:50:40.816Z,945.30
2019-03-25T20:53:07.100Z,945.27
2019-03-25T20:55:33.382Z,945.23
2019-03-25T20:57:59.705Z,945.31
2019-03-25T21:00:25.977Z,945.28
2019-03-25T21:02:52.306Z,945.26
2019-03-25T21:05:18.603Z,945.22
2019-03-25T21:07:44.936Z,945.31
2019-03-25T21:10:11.314Z,945.36
2019-03-25T21:12:38.699Z,945.34
2019-03-25T21:15:03.931Z,945.30
2019-03-25T21:17:30.213Z,945.31
2019-03-25T21:19:56.554Z,945.33
2019-03-25T21:22:22.865Z,945.32
2019-03-25T21:24:49.214Z,945.33
2019-03-25T21:27:15.526Z,945.37
2019-03-25T21:29:41.869Z,945.32
2019-03-25T21:32:08.161Z,945.32
2019-03-25T21:34:34.509Z,945.29
2019-03-25T21:37:00.795Z,945.26
2019-03-25T21:39:27.134Z,945.29
2019-03-25T21:41:53.491Z,945.22
2019-03-25T21:44:19.873Z,945.25
2019-03-25T21:46:46.265Z,945.22
2019-03-25T21:49:12.491Z,945.29
2019-03-25T21:51:38.805Z,945.28
2019-03-25T21:54:05.110Z,945.30
2019-03-25T21:56:31.434Z,945.29
2019-03-25T21:59:00.319Z,945.28
2019-03-25T22:01:24.345Z,945.35
2019-03-25T22:03:50.653Z,945.41
2019-03-25T22:06:16.966Z,945.44
2019-03-25T22:08:43.283Z,945.42
2019-03-25T22:11:09.617Z,945.44
2019-03-25T22:13:35.910Z,945.39
2019-03-25T22:16:02.246Z,945.45
2019-03-25T22:18:30.713Z,945.45
2019-03-25T22:20:54.873Z,945.44
2019-03-25T22:23:21.185Z,945.42
2019-03-25T22:25:47.539Z,945.43
2019-03-25T22:28:13.853Z,945.39
2019-03-25T22:30:40.160Z,945.45
2019-03-25T22:33:06.474Z,945.47
2019-03-25T22:35:32.787Z,945.47
2019-03-25T22:37:59.131Z,945.50
2019-03-25T22:40:25.443Z,945.49
2019-03-25T22:42:51.748Z,945.54
2019-03-25T22:45:18.059Z,945.52
2019-03-25T22:47:44.365Z,945.46
2019-03-25T22:50:10.676Z,945.49
2019-03-25T22:52:36.981Z,945.52
2019-03-25T22:55:03.291Z,945.48
2019-03-25T22:57:29.596Z,945.51
2019-03-25T22:59:55.910Z,945.61
2019-03-25T23:02:22.275Z,945.56
2019-03-25T23:04:48.588Z,945.70
2019-03-25T23:07:14.896Z,945.64
2019-03-25T23:09:41.199Z,945.70
2019-03-25T23:12:07.506Z,945.71
2019-03-25T23:14:33.831Z,945.70
2019-03-25T23:17:00.141Z,945.73
2019-03-25T23:19:26.447Z,945.75
2019-03-25T23:21:52.767Z,945.73
2019-03-25T23:24:19.079Z,945.70
2019-03-25T23:26:45.392Z,945.72
2019-03-25T23:29:11.715Z,945.76
2019-03-25T23:31:38.022Z,945.71
2019-03-25T23:34:04.329Z,945.70
2019-03-25T23:36:30.637Z,945.74
2019-03-25T23:38:56.950Z,945.75
2019-03-25T23:41:23.264Z,945.69
2019-03-25T23:43:49.574Z,945.74
2019-03-25T23:46:15.885Z,945.72
2019-03-25T23:48:42.190Z,945.79
2019-03-25T23:51:08.521Z,945.84
2019-03-25T23:53:34.853Z,945.86
2019-03-25T23:56:01.155Z,945.88
2019-03-25T23:58:27.466Z,945.92
